Skip to Main Content
SEARCH:
Location Air RH Dwp Precip Type Wind Speed Wind Gust Direction Pavement Temperature Date/Time
Hatem Bridge US 40 E/B 64 80 58 None 9 mph 14 mph NW 69 - 69 5/26/2017 8:46:00 AM
I-270 at I-370 61 95 59 None Calm Calm W 61 - 69 5/26/2017 8:45:00 AM
I-270 at MD-109 67 88 63 None Calm 5 mph SE 75 - 75 5/26/2017 8:45:00 AM
I-495 at American Legion Bridge 65 90 63 None Calm 7 mph SW 75 - 76 5/26/2017 8:45:00 AM
I-68 at MD-219 52 100 52 None 13 mph 29 mph W 53 - 55 5/26/2017 8:45:00 AM
I-68 at Savage Mt 56 94 54 None 4 mph 12 mph S 59 - 60 5/26/2017 8:45:00 AM
I-68 at Sideling Hill 61 97 60 None Calm 5 mph SE 67 - 68 5/26/2017 8:45:00 AM
I-68 at WV Line 54 97 54 Rain 4 mph 10 mph W 56 - 57 5/26/2017 8:45:00 AM
I-695 at I-83 61 88 58 None Calm 8 mph N 67 - 69 5/26/2017 8:45:00 AM
I-70 at Fred-Wash Co. - - - No Data Available - - No Data Available -
I-70 at I-695 60 90 57 None 8 mph 14 mph SW 61 - 68 5/26/2017 8:45:00 AM
I-70 at I-81 62 98 62 None Calm 5 mph SW 68 - 68 5/26/2017 8:45:00 AM
I-70 at MD-27 63 96 62 None Calm 6 mph S 69 - 70 5/26/2017 8:45:00 AM
I-70 at MD-32 59 95 58 None Calm 7 mph W 65 - 65 5/26/2017 8:45:00 AM
I-83 at MD-137 61 91 59 None 4 mph 11 mph SW 68 - 68 5/26/2017 8:45:00 AM
I-95 at I-695 NE 63 79 56 None 5 mph 10 mph W 67 - 70 5/26/2017 8:46:00 AM
I-95 at Patuxent River 67 82 61 None Calm 13 mph SW 71 - 73 5/26/2017 8:45:00 AM
I-95 at Tydings Bridge 64 80 58 None Calm Calm NW 72 - 75 5/26/2017 8:45:00 AM
I-95/495 at I-295 67 81 61 None 6 mph 11 mph SW 71 - 73 5/26/2017 8:45:00 AM
I-97 at MD-100 62 86 58 None 9 mph 16 mph W 65 - 66 5/26/2017 8:45:00 AM
I-97 at MD-32 62 88 58 None 9 mph 16 mph N 64 - 67 5/26/2017 8:45:00 AM
MD 20 at MD 21 63 84 58 None 8 mph 15 mph W 73 - 73 5/26/2017 8:45:00 AM
MD 231 at Patuxent River 65 83 60 None 7 mph 12 mph NW 73 - 76 5/26/2017 8:45:00 AM
MD 260 at Cox Rd 65 83 60 None Calm 8 mph SW 78 - 78 5/26/2017 8:45:00 AM
MD-135 at Salt Dome 52 100 52 None 6 mph 18 mph W 55 - 55 5/26/2017 8:45:00 AM
MD-140 at MD-97 60 90 57 None 8 mph 15 mph SW 68 - 68 5/26/2017 8:45:00 AM
MD-200 EB at Bonifant Rd 63 88 60 None Calm 5 mph N 73 - 73 5/26/2017 8:46:00 AM
MD-200 WB at Muncaster Mill Rd 63 83 58 None 4 mph 10 mph W 68 - 69 5/26/2017 8:46:00 AM
MD-213 at Sassafras River 65 84 60 None 8 mph 13 mph W 70 - 70 5/26/2017 8:45:00 AM
MD-24 at Rock St Park 61 100 61 None Calm 4 mph E 61 - 61 5/26/2017 8:45:00 AM
MD-30 at PA Line 60 94 58 None 9 mph 17 mph W 68 - 68 5/26/2017 8:45:00 AM
MD-301 at MD-305 64 78 57 None 12 mph 20 mph W 74 - 75 5/26/2017 8:45:00 AM
MD-33 at Knapps Narrows Drawbridge 65 81 59 None 7 mph 15 mph W 77 - 77 5/26/2017 8:45:00 AM
MD-344 at MD-224 62 92 60 None Calm 4 mph S 70 - 70 5/26/2017 8:45:00 AM
MD-4 at Patuxent River 66 86 62 None - - No Data Available 71 - 73 5/26/2017 8:45:00 AM
MD-404 at Choptank River 65 75 57 None 9 mph 19 mph W 78 - 81 5/26/2017 8:45:00 AM
MD-43 at MD-150 64 85 59 None 7 mph 13 mph W 68 - 69 5/26/2017 8:45:00 AM
MD-51 at Oldtown Salt Dome 65 76 58 None 10 mph 20 mph W 72 - 72 5/26/2017 8:45:00 AM
MD-64 at MD-418 - - - No Data Available - - No Data Available -
US-1 at Baltimore / Harford Co. Line 63 80 57 None 5 mph 15 mph E 62 - 64 5/26/2017 8:45:00 AM
US-1 at Conowingo Dam 62 95 61 None Calm Calm NW 61 - 61 5/26/2017 8:45:00 AM
US-13 at US-113 66 77 59 None Calm 9 mph W 80 - 80 5/26/2017 8:45:00 AM
US-13 at US-50 - - - No Data Available - - No Data Available -
US-15 at MD-140 61 87 58 None Calm 5 mph S 66 - 69 5/26/2017 8:45:00 AM
US-301 at MD-5 65 90 62 None Calm 7 mph NW 68 - 74 5/26/2017 8:45:00 AM
US-301 at Potomac 66 80 60 None 7 mph 10 mph W 72 - 75 5/26/2017 8:45:00 AM
US-301 on HWN Bridge 65 78 58 None 12 mph 15 mph W 70 - 70 5/26/2017 8:46:00 AM
US-340 at MD-180 64 77 57 None 5 mph 13 mph SW 71 - 72 5/26/2017 8:45:00 AM
US-50 at Choptank 67 80 61 None 12 mph 18 mph W 73 - 74 5/26/2017 8:45:00 AM
US-50 at I-95 65 87 61 None Calm 7 mph W 74 - 76 5/26/2017 8:45:00 AM
US-50 at MD-2 63 93 61 None Calm 8 mph S 63 - 64 5/26/2017 8:45:00 AM
US-50 at MD-331 66 80 59 None 10 mph 15 mph W 74 - 75 5/26/2017 8:45:00 AM
US-50 at OC Drawbridge 66 75 58 None 9 mph 18 mph W 77 - 77 5/26/2017 8:45:00 AM
US-50 at Table Rock Rd 50 100 50 None 8 mph 18 mph W 54 - 54 5/26/2017 8:45:00 AM
US-50 Kent Narrow Bridge 62 91 60 None 9 mph 16 mph SW 66 - 68 5/26/2017 8:45:00 AM
WPL Pier 31 62 82 57 None 9 mph 7 mph NW 68 - 68 5/26/2017 8:49:00 AM
Location Air RH Dwp Precip Type Wind Speed Wind Gust Direction Pavement Temperature Date/Time